Lapis Arrow — C6VH5 — position and weather

sailwx.info

Track history (hours):
 
Tides and Currents Weather Stations Pressure Air Temp Water Temp Dewpoint Dewpoint Depression Visibility Wind Speed Wind Dir Waves Ship Positions

Lapis Arrow

Last reported at 2016-May-20 13:33 UTC. Time now 2016-Jun-25 08:51 UTC.
Position N 36°33' E 015°17'.
Warning: this ship's position is 35 days out of date.

Length 176 m; draft 7.3 m.

Type: Cargo ship. MMSI: 308800800.

Date/timePositionNaut miles runAvg speedWind from/ knotsBaromVisibWave heightAir tempDewpointWater temp
2016-May-20 13:33N 36°33' E 015°17'1615.8
2016-May-20 12:33N 36°33' E 014°57'1616.4
2016-May-20 11:33N 36°36' E 014°38'1717.3
2016-May-20 10:33N 36°44' E 014°18'1716.9
2016-May-20 09:33N 36°51' E 013°59'1616.4
2016-May-20 08:33N 36°57' E 013°40'49116.2
2016-May-19 02:13N 37°09' E 003°25'1217.4
2016-May-19 01:33N 37°07' E 003°11'2116.5
2016-May-19 00:18N 37°03' E 002°45'1216.4
2016-May-18 23:33N 37°01' E 002°30'1616.4
2016-May-18 22:33N 36°58' E 002°10'1616.4
2016-May-18 21:33N 36°55' E 001°50'1716.9
2016-May-18 20:33N 36°53' E 001°29'1716.5
2016-May-18 19:33N 36°50' E 001°09'1616.0
2016-May-18 18:33N 36°47' E 000°49'1515.6
2016-May-18 17:34N 36°44' E 000°30'1615.4
2016-May-18 16:32N 36°41' E 000°10'2115.5
2016-May-18 15:10N 36°38' W 000°15'1016.1
2016-May-18 14:33N 36°36' W 000°28'23216.4
2016-May-18 00:26N 36°01' W 005°12'1517.5
2016-May-17 23:33N 35°57' W 005°30'9315.4
2016-May-17 17:31N 35°44' W 007°24'1716.4
2016-May-17 16:30N 35°41' W 007°44'  
Track history (hours):
 
Tides and Currents Weather Stations Pressure Air Temp Water Temp Dewpoint Dewpoint Depression Visibility Wind Speed Wind Dir Waves Ship Positions

Lapis Arrow

Last reported at 2016-May-20 13:33 UTC. Time now 2016-Jun-25 08:51 UTC.
Position N 36°33' E 015°17'.
Warning: this ship's position is 35 days out of date.

Length 176 m; draft 7.3 m.

Type: Cargo ship. MMSI: 308800800.

Date/timePositionNaut miles runAvg speedWind from/ knotsBaromVisibWave heightAir tempDewpointWater temp
2016-May-20 13:33N 36°33' E 015°17'1615.8
2016-May-20 12:33N 36°33' E 014°57'1616.4
2016-May-20 11:33N 36°36' E 014°38'1717.3
2016-May-20 10:33N 36°44' E 014°18'1716.9
2016-May-20 09:33N 36°51' E 013°59'1616.4
2016-May-20 08:33N 36°57' E 013°40'49116.2
2016-May-19 02:13N 37°09' E 003°25'1217.4
2016-May-19 01:33N 37°07' E 003°11'2116.5
2016-May-19 00:18N 37°03' E 002°45'1216.4
2016-May-18 23:33N 37°01' E 002°30'1616.4
2016-May-18 22:33N 36°58' E 002°10'1616.4
2016-May-18 21:33N 36°55' E 001°50'1716.9
2016-May-18 20:33N 36°53' E 001°29'1716.5
2016-May-18 19:33N 36°50' E 001°09'1616.0
2016-May-18 18:33N 36°47' E 000°49'1515.6
2016-May-18 17:34N 36°44' E 000°30'1615.4
2016-May-18 16:32N 36°41' E 000°10'2115.5
2016-May-18 15:10N 36°38' W 000°15'1016.1
2016-May-18 14:33N 36°36' W 000°28'23216.4
2016-May-18 00:26N 36°01' W 005°12'1517.5
2016-May-17 23:33N 35°57' W 005°30'9315.4
2016-May-17 17:31N 35°44' W 007°24'1716.4
2016-May-17 16:30N 35°41' W 007°44'  

Dump ship's entire track history